Time;durP1;ratioP1;P1;durP2;ratioP2;P2;SDS_P1;SDS_P2;PMS_P1;PMS_P2;Temp;Humidity;BMP_temperature;BMP_pressure;BME280_temperature;BME280_humidity;BME280_pressure;Samples;Min_cycle;Max_cycle;Signal;HPM_P1;HPM_P2
2022/07/30 00:02:00;;;;;;;6.63;3.70;;;;;;;14.83;100.00;96811.88;5020659;28;20447;-65
2022/07/30 00:04:26;;;;;;;4.55;3.80;;;;;;;15.00;100.00;96809.50;4996883;28;20057;-68
2022/07/30 00:06:51;;;;;;;4.97;3.70;;;;;;;15.08;100.00;96805.59;5002707;28;20467;-66
2022/07/30 00:09:17;;;;;;;4.47;3.30;;;;;;;15.15;100.00;96808.34;5012225;28;20106;-65
2022/07/30 00:11:42;;;;;;;4.95;3.30;;;;;;;15.18;100.00;96815.84;5027632;28;20053;-65
2022/07/30 00:14:08;;;;;;;5.63;3.35;;;;;;;15.23;100.00;96806.38;5026561;28;20124;-66
2022/07/30 00:16:34;;;;;;;5.03;3.47;;;;;;;15.18;100.00;96810.34;5010513;28;20033;-66
2022/07/30 00:19:00;;;;;;;4.97;2.58;;;;;;;15.12;100.00;96811.09;5010975;28;20091;-65
2022/07/30 00:21:25;;;;;;;4.13;2.65;;;;;;;15.04;100.00;96808.34;5028554;28;20033;-63
2022/07/30 00:23:51;;;;;;;4.25;3.25;;;;;;;14.95;100.00;96807.94;5028686;28;20092;-67
2022/07/30 00:26:16;;;;;;;4.25;2.85;;;;;;;14.91;100.00;96812.69;5008400;28;20037;-66
2022/07/30 00:28:41;;;;;;;9.32;3.38;;;;;;;14.90;100.00;96813.84;5011219;28;20347;-65
2022/07/30 00:31:07;;;;;;;3.97;2.90;;;;;;;15.01;100.00;96822.13;5030936;28;20029;-65
2022/07/30 00:33:32;;;;;;;4.18;3.10;;;;;;;15.04;100.00;96827.66;5032136;28;20079;-67
2022/07/30 00:35:58;;;;;;;7.00;3.28;;;;;;;15.02;100.00;96816.22;5031510;28;20021;-66
2022/07/30 00:38:23;;;;;;;8.35;3.35;;;;;;;14.99;100.00;96821.75;5029664;28;20109;-66
2022/07/30 00:40:49;;;;;;;4.60;3.55;;;;;;;14.87;100.00;96826.47;4999869;28;20433;-65
2022/07/30 00:43:16;;;;;;;5.25;3.35;;;;;;;14.66;100.00;96823.66;5032734;28;20561;-65
2022/07/30 00:45:43;;;;;;;4.20;3.10;;;;;;;14.56;100.00;96824.41;5031345;28;20026;-65
2022/07/30 00:48:10;;;;;;;5.53;3.13;;;;;;;14.59;100.00;96824.44;5031818;28;20084;-65
2022/07/30 00:50:36;;;;;;;5.78;3.53;;;;;;;14.60;100.00;96825.22;5030483;28;20105;-65
2022/07/30 00:53:02;;;;;;;5.25;3.17;;;;;;;14.65;100.00;96819.31;5013946;28;20021;-65
2022/07/30 00:55:28;;;;;;;6.10;3.92;;;;;;;14.63;100.00;96818.94;5031842;28;20026;-65
2022/07/30 00:57:53;;;;;;;4.43;3.33;;;;;;;14.58;100.00;96831.09;5029389;28;20029;-66
2022/07/30 01:00:18;;;;;;;4.88;3.70;;;;;;;14.73;100.00;96831.97;5017139;28;20364;-65
2022/07/30 01:02:44;;;;;;;3.92;3.42;;;;;;;14.74;100.00;96829.97;5013856;28;20112;-66
2022/07/30 01:05:10;;;;;;;5.13;3.47;;;;;;;14.94;100.00;96828.44;5031331;28;20026;-67
2022/07/30 01:07:35;;;;;;;6.05;3.60;;;;;;;14.90;100.00;96833.94;5031061;28;20100;-65
2022/07/30 01:10:01;;;;;;;4.47;3.42;;;;;;;14.94;100.00;96833.94;5011731;28;20029;-66
2022/07/30 01:12:27;;;;;;;5.72;3.90;;;;;;;14.89;100.00;96826.84;5030587;28;20052;-66
2022/07/30 01:14:57;;;;;;;4.72;3.05;;;;;;;14.93;100.00;96831.56;5030313;28;20017;-65
2022/07/30 01:17:23;;;;;;;6.70;2.90;;;;;;;14.88;100.00;96819.75;5032675;28;20044;-65
2022/07/30 01:19:51;;;;;;;18.45;3.78;;;;;;;14.77;100.00;96829.97;5031780;28;20033;-66
2022/07/30 01:22:46;;;;;;;7.30;3.20;;;;;;;14.81;100.00;96824.47;5031040;28;20029;-66
2022/07/30 01:25:24;;;;;;;6.03;3.50;;;;;;;14.83;100.00;96830.38;4995191;28;20065;-66
2022/07/30 01:28:06;;;;;;;5.75;3.50;;;;;;;14.66;100.00;96835.47;5030297;28;20021;-67
2022/07/30 01:30:34;;;;;;;5.88;3.22;;;;;;;14.74;100.00;96829.97;4996807;28;20083;-65
2022/07/30 01:33:00;;;;;;;8.25;4.38;;;;;;;14.34;100.00;96816.06;5030753;28;20033;-65
2022/07/30 01:35:29;;;;;;;6.38;3.70;;;;;;;14.29;100.00;96819.97;5029405;28;20029;-66
2022/07/30 01:37:56;;;;;;;5.80;4.40;;;;;;;14.28;100.00;96817.63;4991908;28;20422;-67
2022/07/30 01:40:24;;;;;;;7.65;4.20;;;;;;;14.19;100.00;96817.97;5030759;28;20215;-66
2022/07/30 01:42:55;;;;;;;4.60;3.40;;;;;;;14.34;100.00;96818.81;5032035;28;20033;-66
2022/07/30 01:45:23;;;;;;;4.30;3.13;;;;;;;14.52;100.00;96825.16;5031165;28;20033;-66
2022/07/30 01:47:52;;;;;;;5.85;3.50;;;;;;;14.61;100.00;96819.31;5032330;28;20029;-64
2022/07/30 01:50:19;;;;;;;6.63;3.33;;;;;;;14.76;100.00;96824.84;5036870;28;20113;-66
2022/07/30 01:52:47;;;;;;;5.78;3.28;;;;;;;14.81;100.00;96827.22;5034690;28;20064;-65
2022/07/30 01:55:17;;;;;;;8.85;3.38;;;;;;;14.93;100.00;96831.56;5030236;28;20021;-64
2022/07/30 01:57:45;;;;;;;7.38;3.30;;;;;;;15.08;100.00;96828.44;5025843;28;20032;-64
2022/07/30 02:00:12;;;;;;;7.45;3.80;;;;;;;15.25;100.00;96832.41;5032274;28;20040;-66
2022/07/30 02:02:39;;;;;;;3.78;2.70;;;;;;;15.11;100.00;96824.13;5032189;28;20529;-65
2022/07/30 02:05:06;;;;;;;8.68;4.15;;;;;;;14.65;100.00;96830.34;5031961;28;20044;-65
2022/07/30 02:07:56;;;;;;;8.43;3.70;;;;;;;14.38;100.00;96824.34;5022062;28;20406;-66
2022/07/30 02:10:34;;;;;;;5.05;3.60;;;;;;;14.27;100.00;96832.56;5031965;28;20118;-65
2022/07/30 02:13:03;;;;;;;6.60;4.40;;;;;;;14.17;100.00;96827.78;5014419;28;20095;-64
2022/07/30 02:15:37;;;;;;;9.88;4.55;;;;;;;14.15;100.00;96826.22;5030764;28;20029;-65
2022/07/30 02:18:26;;;;;;;8.98;5.72;;;;;;;14.28;100.00;96831.41;5019409;28;20404;-65
2022/07/30 02:21:02;;;;;;;6.93;5.68;;;;;;;14.37;100.00;96829.06;5025295;28;20030;-65
2022/07/30 02:23:29;;;;;;;6.45;5.03;;;;;;;14.58;100.00;96828.34;5034159;28;20120;-65
2022/07/30 02:25:58;;;;;;;8.85;4.70;;;;;;;14.72;100.00;96822.88;5033175;28;20048;-65
2022/07/30 02:28:26;;;;;;;7.88;5.03;;;;;;;14.80;100.00;96826.44;5026212;28;20030;-65
2022/07/30 02:30:54;;;;;;;6.97;3.90;;;;;;;14.84;100.00;96824.47;5012858;28;20029;-65
2022/07/30 02:33:22;;;;;;;7.13;4.80;;;;;;;14.98;100.00;96820.97;4995483;28;20034;-65
2022/07/30 02:35:50;;;;;;;8.50;3.90;;;;;;;15.03;100.00;96817.78;5025879;28;20042;-68
2022/07/30 02:38:19;;;;;;;5.03;4.25;;;;;;;15.03;100.00;96815.03;5022861;28;20040;-67
2022/07/30 02:40:45;;;;;;;5.95;3.53;;;;;;;15.06;100.00;96822.53;5031886;28;20025;-66
2022/07/30 02:43:14;;;;;;;9.98;4.30;;;;;;;15.25;100.00;96828.84;5022642;28;20025;-66
2022/07/30 02:45:41;;;;;;;6.70;3.90;;;;;;;15.26;100.00;96824.91;5031471;28;20026;-67
2022/07/30 02:48:07;;;;;;;5.20;3.42;;;;;;;15.43;100.00;96826.88;5030403;28;20102;-67
2022/07/30 02:50:34;;;;;;;4.43;3.53;;;;;;;15.46;100.00;96830.81;5030988;28;20025;-65
2022/07/30 02:53:03;;;;;;;7.55;3.55;;;;;;;15.52;100.00;96823.72;5032172;28;20035;-66
2022/07/30 02:55:34;;;;;;;6.72;3.85;;;;;;;15.40;100.00;96818.59;5031372;28;20104;-65
2022/07/30 02:58:01;;;;;;;6.03;3.90;;;;;;;15.44;100.00;96833.19;5021493;28;20393;-66
2022/07/30 03:00:28;;;;;;;8.95;4.13;;;;;;;15.46;100.00;96828.03;5031185;28;20033;-66
2022/07/30 03:02:56;;;;;;;8.10;3.90;;;;;;;15.48;100.00;96828.44;5031199;28;20033;-65
2022/07/30 03:05:22;;;;;;;4.88;3.47;;;;;;;15.48;100.00;96831.19;5030933;28;20034;-65
2022/07/30 03:07:48;;;;;;;8.57;4.15;;;;;;;15.44;100.00;96827.66;5021890;28;20116;-65
2022/07/30 03:10:16;;;;;;;10.52;4.60;;;;;;;14.97;100.00;96821.34;5031405;28;20029;-66
2022/07/30 03:12:44;;;;;;;8.98;4.40;;;;;;;14.52;100.00;96824.38;5021007;28;20029;-65
2022/07/30 03:15:10;;;;;;;8.00;4.75;;;;;;;14.36;100.00;96832.22;5009570;28;20090;-65
2022/07/30 03:17:44;;;;;;;9.43;5.22;;;;;;;14.29;100.00;96841.22;5031062;28;20049;-66
2022/07/30 03:20:14;;;;;;;9.07;6.00;;;;;;;14.26;100.00;96834.53;5013206;28;20030;-65
2022/07/30 03:22:47;;;;;;;9.43;6.18;;;;;;;14.16;100.00;96835.28;5030950;28;20053;-65
2022/07/30 03:25:15;;;;;;;13.07;6.93;;;;;;;14.22;100.00;96833.72;5023016;28;20405;-65
2022/07/30 03:27:42;;;;;;;15.23;5.28;;;;;;;14.37;100.00;96836.53;5036226;28;20517;-64
2022/07/30 03:30:08;;;;;;;8.95;6.28;;;;;;;14.60;100.00;96833.47;5035056;28;20044;-67
2022/07/30 03:32:35;;;;;;;9.60;6.30;;;;;;;14.67;100.00;96836.25;5030951;28;20037;-67
2022/07/30 03:35:02;;;;;;;6.97;6.15;;;;;;;14.61;100.00;96838.59;5029963;28;20037;-65
2022/07/30 03:37:28;;;;;;;9.00;5.90;;;;;;;14.54;100.00;96846.81;5021843;28;20402;-66
2022/07/30 03:39:56;;;;;;;5.93;5.03;;;;;;;14.63;100.00;96844.50;5029576;28;20029;-66
2022/07/30 03:42:23;;;;;;;8.00;5.70;;;;;;;14.90;100.00;96847.72;5030775;28;20029;-65
2022/07/30 03:44:49;;;;;;;6.70;4.60;;;;;;;15.06;100.00;96835.53;5023973;28;20450;-65
2022/07/30 03:47:16;;;;;;;6.78;5.05;;;;;;;15.18;100.00;96840.69;5028316;28;20437;-65
2022/07/30 03:49:41;;;;;;;9.00;5.10;;;;;;;15.21;100.00;96848.16;5030715;28;20041;-66
2022/07/30 03:52:08;;;;;;;7.18;4.57;;;;;;;15.13;100.00;96846.59;5030790;28;20037;-65
2022/07/30 03:54:34;;;;;;;5.88;5.28;;;;;;;14.96;100.00;96850.09;5029799;28;20401;-65
2022/07/30 03:57:01;;;;;;;9.52;4.88;;;;;;;14.90;100.00;96847.72;5030729;28;20033;-66
2022/07/30 03:59:28;;;;;;;7.20;4.90;;;;;;;14.89;100.00;96853.63;5027035;28;20030;-67
2022/07/30 04:01:58;;;;;;;6.90;5.75;;;;;;;14.76;100.00;96855.97;5025220;28;20036;-66
2022/07/30 04:04:24;;;;;;;6.93;5.60;;;;;;;14.54;100.00;96855.88;5033432;28;20033;-64
2022/07/30 04:06:49;;;;;;;8.10;5.30;;;;;;;14.52;100.00;96863.75;5025221;28;20098;-66
2022/07/30 04:09:15;;;;;;;7.78;5.63;;;;;;;14.54;100.00;96864.16;5034428;28;20029;-67
2022/07/30 04:11:40;;;;;;;15.27;5.95;;;;;;;14.72;100.00;96868.97;5034205;28;20182;-67
2022/07/30 04:14:06;;;;;;;6.95;4.55;;;;;;;14.88;100.00;96869.38;5032401;28;20029;-67
2022/07/30 04:16:56;;;;;;;9.32;5.18;;;;;;;15.04;100.00;96877.31;5015813;28;20049;-67
2022/07/30 04:19:30;;;;;;;8.93;4.65;;;;;;;15.13;100.00;96879.69;5034178;28;20108;-65
2022/07/30 04:21:57;;;;;;;6.63;4.45;;;;;;;15.21;100.00;96881.25;5034042;28;20063;-67
2022/07/30 04:24:25;;;;;;;6.63;4.72;;;;;;;15.32;100.00;96881.25;5030151;28;20033;-66
2022/07/30 04:26:51;;;;;;;7.63;4.22;;;;;;;15.34;100.00;96876.16;5028228;28;20029;-67
2022/07/30 04:29:17;;;;;;;5.65;4.30;;;;;;;15.38;100.00;96885.22;5031625;28;20037;-66
2022/07/30 04:31:43;;;;;;;8.88;4.65;;;;;;;15.43;100.00;96890.34;5027300;28;20064;-67
2022/07/30 04:34:13;;;;;;;5.35;3.85;;;;;;;15.46;100.00;96888.75;5014764;28;20390;-66
2022/07/30 04:36:39;;;;;;;7.72;3.92;;;;;;;15.52;100.00;96889.16;5015624;28;20041;-66
2022/07/30 04:39:05;;;;;;;8.52;3.90;;;;;;;15.60;100.00;96886.00;5016541;28;20038;-66
2022/07/30 04:41:30;;;;;;;4.55;3.13;;;;;;;15.70;100.00;96889.97;5037415;28;20057;-66
2022/07/30 04:43:56;;;;;;;4.30;3.45;;;;;;;15.75;100.00;96895.09;5032717;28;20621;-67
2022/07/30 04:46:21;;;;;;;5.47;3.28;;;;;;;15.71;100.00;96890.75;5024677;28;20034;-66
2022/07/30 04:48:46;;;;;;;6.95;3.30;;;;;;;15.67;100.00;96899.81;5033608;28;20087;-66
2022/07/30 04:51:19;;;;;;;8.07;4.05;;;;;;;15.69;100.00;96904.94;5033706;28;20053;-67
2022/07/30 04:53:45;;;;;;;4.65;3.20;;;;;;;15.79;100.00;96906.94;5031155;28;20048;-66
2022/07/30 04:56:13;;;;;;;7.15;3.45;;;;;;;15.92;100.00;96912.84;5024603;28;20036;-66
2022/07/30 04:58:40;;;;;;;6.18;3.47;;;;;;;16.04;100.00;96911.63;5032236;28;20482;-66
2022/07/30 05:01:07;;;;;;;6.95;3.08;;;;;;;16.12;100.00;96909.66;4999716;28;20068;-66
2022/07/30 05:03:34;;;;;;;4.63;3.00;;;;;;;16.15;100.00;96915.19;5015434;28;20040;-67
2022/07/30 05:06:00;;;;;;;5.43;3.30;;;;;;;16.20;100.00;96911.19;5044127;28;20116;-65
2022/07/30 05:08:26;;;;;;;5.00;3.13;;;;;;;16.19;100.00;96912.41;5034399;28;20057;-66
2022/07/30 05:10:52;;;;;;;6.75;3.28;;;;;;;16.29;100.00;96921.84;5024042;28;20034;-67
2022/07/30 05:13:18;;;;;;;4.40;3.10;;;;;;;16.37;100.00;96920.66;5029749;28;20035;-67
2022/07/30 05:15:43;;;;;;;5.00;3.75;;;;;;;16.46;100.00;96921.00;5026042;28;20036;-67
2022/07/30 05:18:09;;;;;;;4.13;3.28;;;;;;;16.73;100.00;96924.06;5033153;28;20036;-66
2022/07/30 05:20:35;;;;;;;11.93;3.53;;;;;;;17.68;100.00;96923.13;5032725;28;20029;-66
2022/07/30 05:23:01;;;;;;;4.68;3.00;;;;;;;19.24;100.00;96931.34;5015817;28;20035;-67
2022/07/30 05:25:26;;;;;;;4.30;2.53;;;;;;;20.89;100.00;96931.28;5024403;28;20114;-67
2022/07/30 05:27:52;;;;;;;4.03;2.42;;;;;;;22.32;100.00;96938.31;5032170;28;20451;-67
2022/07/30 05:30:17;;;;;;;5.40;2.30;;;;;;;23.71;90.33;96934.69;5023982;28;20033;-66
2022/07/30 05:32:42;;;;;;;3.60;1.92;;;;;;;24.92;80.99;96943.00;5032692;28;20117;-66
2022/07/30 05:35:08;;;;;;;3.60;1.80;;;;;;;25.94;75.29;96943.50;5031382;28;20028;-66
2022/07/30 05:37:33;;;;;;;4.68;1.70;;;;;;;26.88;70.58;96941.13;5024285;28;20072;-66
2022/07/30 05:39:59;;;;;;;3.20;1.90;;;;;;;27.58;66.57;96940.31;5032441;28;20108;-67
2022/07/30 05:42:24;;;;;;;3.83;1.85;;;;;;;27.73;65.41;96939.63;5032260;28;20363;-66
2022/07/30 05:44:49;;;;;;;5.03;1.98;;;;;;;26.97;67.93;96937.50;5021320;28;20033;-68
2022/07/30 05:47:17;;;;;;;2.83;1.70;;;;;;;26.98;68.79;96941.09;5032150;28;20101;-67
2022/07/30 05:49:42;;;;;;;2.47;1.70;;;;;;;27.00;69.02;96947.81;5014619;28;20160;-67
2022/07/30 05:52:07;;;;;;;3.42;1.95;;;;;;;27.52;65.89;96945.03;5032280;28;20553;-66
2022/07/30 05:54:33;;;;;;;8.07;2.50;;;;;;;27.45;70.13;96942.56;5028032;28;20040;-66
2022/07/30 05:56:58;;;;;;;3.85;2.17;;;;;;;27.35;65.66;96944.63;5027206;28;20037;-66
2022/07/30 05:59:24;;;;;;;5.10;1.92;;;;;;;26.02;70.72;96947.59;5032210;28;20069;-66
2022/07/30 06:01:49;;;;;;;8.60;2.40;;;;;;;25.18;75.42;96957.63;5032265;28;20037;-66
2022/07/30 06:04:14;;;;;;;2.70;1.90;;;;;;;25.29;77.47;96960.06;5028961;28;20562;-66
2022/07/30 06:06:40;;;;;;;3.15;1.98;;;;;;;25.77;75.88;96951.41;5018243;28;20034;-67
2022/07/30 06:09:05;;;;;;;3.58;2.10;;;;;;;26.40;73.05;96954.84;5010958;28;20033;-65
2022/07/30 06:11:31;;;;;;;5.07;2.10;;;;;;;26.80;71.16;96953.16;5032222;28;20053;-66
2022/07/30 06:13:56;;;;;;;2.97;2.25;;;;;;;27.65;66.19;96956.06;5030952;28;20061;-66
2022/07/30 06:16:21;;;;;;;2.28;1.50;;;;;;;28.52;64.11;96961.88;5031770;28;20114;-66
2022/07/30 06:18:47;;;;;;;3.45;2.35;;;;;;;29.67;58.13;96967.03;5031880;28;20034;-66
2022/07/30 06:21:12;;;;;;;4.28;2.10;;;;;;;30.04;57.68;96965.84;5032064;28;20034;-66
2022/07/30 06:23:38;;;;;;;5.07;1.60;;;;;;;30.10;55.82;96975.91;5031348;28;20049;-66
2022/07/30 06:26:03;;;;;;;4.55;2.08;;;;;;;29.29;56.23;96973.59;5030224;28;20070;-65
2022/07/30 06:28:29;;;;;;;4.45;2.00;;;;;;;27.90;62.58;96976.63;5013889;28;20087;-65
2022/07/30 06:30:54;;;;;;;3.15;1.85;;;;;;;27.05;65.61;96978.09;5032093;28;20194;-65
2022/07/30 06:33:19;;;;;;;3.85;2.40;;;;;;;25.52;71.84;96984.00;5031721;28;20037;-65
2022/07/30 06:35:45;;;;;;;4.57;2.55;;;;;;;24.54;78.45;96976.78;5031437;28;20036;-65
2022/07/30 06:38:10;;;;;;;4.55;2.63;;;;;;;24.20;81.53;96976.28;5023355;28;20045;-65
2022/07/30 06:40:35;;;;;;;4.63;2.50;;;;;;;23.79;85.12;96977.22;5032077;28;20398;-66
2022/07/30 06:43:02;;;;;;;5.47;2.67;;;;;;;23.46;87.57;96978.22;5031819;28;20041;-66
2022/07/30 06:45:28;;;;;;;4.57;3.10;;;;;;;23.34;87.61;96979.00;5023522;28;20108;-67
2022/07/30 06:47:58;;;;;;;4.63;2.95;;;;;;;23.50;87.30;96980.09;5030486;28;20036;-66
2022/07/30 06:50:24;;;;;;;6.15;3.10;;;;;;;23.52;86.93;96978.44;5031827;28;20037;-65
2022/07/30 06:52:49;;;;;;;4.35;2.92;;;;;;;23.41;87.55;96973.19;4996583;28;20029;-66
2022/07/30 06:55:14;;;;;;;3.95;2.63;;;;;;;23.28;87.77;96975.97;5023020;28;20394;-65
2022/07/30 06:57:40;;;;;;;4.03;2.88;;;;;;;23.13;89.53;96985.22;5025361;28;20512;-66
2022/07/30 07:00:06;;;;;;;4.68;3.22;;;;;;;22.96;90.63;96979.66;5027337;28;20389;-66
2022/07/30 07:02:32;;;;;;;5.70;2.92;;;;;;;22.82;91.21;96992.00;5030285;28;20033;-67
2022/07/30 07:04:58;;;;;;;7.07;3.55;;;;;;;22.68;92.18;96989.63;5022944;28;20036;-66
2022/07/30 07:07:23;;;;;;;8.85;3.55;;;;;;;22.61;92.97;96981.44;5028653;28;20029;-67
2022/07/30 07:09:49;;;;;;;8.18;3.83;;;;;;;22.47;93.84;96985.38;5030211;28;20033;-65
2022/07/30 07:12:14;;;;;;;4.95;3.63;;;;;;;22.72;94.60;96993.09;5028177;28;20037;-65
2022/07/30 07:14:39;;;;;;;6.22;3.72;;;;;;;23.53;90.49;96990.41;5027050;28;20109;-65
2022/07/30 07:17:05;;;;;;;5.07;3.50;;;;;;;24.75;80.13;96992.06;5028863;28;20080;-65
2022/07/30 07:19:30;;;;;;;5.05;3.30;;;;;;;25.83;75.32;96991.63;5027119;28;20022;-65
2022/07/30 07:21:56;;;;;;;4.22;2.88;;;;;;;27.70;65.94;96991.25;5026049;28;20320;-65
2022/07/30 07:24:21;;;;;;;3.65;2.25;;;;;;;29.38;57.37;96992.47;5022492;28;20040;-65
2022/07/30 07:26:47;;;;;;;5.80;2.60;;;;;;;30.49;51.91;96983.41;5029945;28;20112;-65
2022/07/30 07:29:12;;;;;;;5.55;2.55;;;;;;;30.28;52.39;96986.19;5003645;28;20095;-66
2022/07/30 07:31:37;;;;;;;6.25;2.45;;;;;;;29.83;54.36;96990.41;5023058;28;20030;-65
2022/07/30 07:34:03;;;;;;;3.60;2.10;;;;;;;30.55;53.88;96997.63;5031241;28;20032;-65
2022/07/30 07:36:28;;;;;;;3.67;2.17;;;;;;;30.16;53.50;96992.97;5030468;28;20398;-65
2022/07/30 07:38:54;;;;;;;3.80;2.33;;;;;;;30.34;52.26;96994.75;5035599;28;20037;-65
2022/07/30 07:41:19;;;;;;;5.93;2.25;;;;;;;32.13;47.18;96997.13;5028376;28;20487;-65
2022/07/30 07:43:44;;;;;;;5.63;2.03;;;;;;;31.69;47.11;96998.31;5016991;28;20025;-65
2022/07/30 07:46:15;;;;;;;3.67;2.03;;;;;;;31.91;45.88;96994.09;5034564;28;20502;-65
2022/07/30 07:48:40;;;;;;;5.03;2.08;;;;;;;31.51;46.55;97001.53;5035420;28;20033;-66
2022/07/30 07:51:06;;;;;;;4.78;2.20;;;;;;;31.03;47.98;97003.59;5025985;28;20525;-65
2022/07/30 07:53:31;;;;;;;7.10;1.90;;;;;;;30.99;48.47;96996.59;5034631;28;20060;-66
2022/07/30 07:55:57;;;;;;;3.45;1.80;;;;;;;31.77;46.07;97002.25;5034887;28;20037;-65
2022/07/30 07:58:23;;;;;;;6.78;2.17;;;;;;;31.57;45.00;97003.13;5025776;28;20033;-64
2022/07/30 08:00:48;;;;;;;4.03;1.90;;;;;;;30.73;46.88;96994.50;5025979;28;20453;-64
2022/07/30 08:03:14;;;;;;;4.45;2.10;;;;;;;30.44;47.87;97001.06;5035736;28;20040;-66
2022/07/30 08:05:39;;;;;;;3.60;2.03;;;;;;;30.88;44.74;97000.84;5035296;28;20479;-63
2022/07/30 08:08:04;;;;;;;6.40;2.42;;;;;;;30.67;45.68;96994.44;5008609;28;20038;-64
2022/07/30 08:10:30;;;;;;;5.95;2.40;;;;;;;30.43;46.10;97000.31;5026562;28;20522;-64
2022/07/30 08:12:56;;;;;;;7.47;2.55;;;;;;;31.55;42.37;97008.53;5018658;28;20553;-65
2022/07/30 08:15:21;;;;;;;4.43;1.92;;;;;;;32.29;40.81;96998.53;5000233;28;21348;-64
2022/07/30 08:17:46;;;;;;;4.90;2.42;;;;;;;31.46;43.28;97000.19;5020134;28;20042;-65
2022/07/30 08:20:14;;;;;;;3.78;2.03;;;;;;;32.22;40.17;96998.22;5018616;28;20060;-65
2022/07/30 08:22:40;;;;;;;8.02;2.45;;;;;;;31.00;42.26;96998.94;5023779;28;20431;-64
2022/07/30 08:25:06;;;;;;;3.30;1.80;;;;;;;31.73;41.67;97001.72;5018778;28;20045;-65
2022/07/30 08:27:32;;;;;;;4.68;2.10;;;;;;;30.91;44.53;96996.25;5000667;28;20042;-65
2022/07/30 08:29:57;;;;;;;7.40;2.45;;;;;;;30.76;42.71;96998.38;5002256;28;20107;-65
2022/07/30 08:32:23;;;;;;;5.63;2.42;;;;;;;29.61;43.53;97008.50;5013678;28;20575;-65
2022/07/30 08:34:48;;;;;;;5.53;2.25;;;;;;;29.84;42.01;97001.22;5027491;28;20046;-65
2022/07/30 08:37:14;;;;;;;5.28;2.38;;;;;;;30.36;41.28;97005.56;5016102;28;20140;-66
2022/07/30 08:39:40;;;;;;;4.90;2.13;;;;;;;31.00;40.74;96998.94;5016399;28;20048;-64
2022/07/30 08:42:06;;;;;;;5.40;1.88;;;;;;;32.05;36.66;97000.94;5018845;28;20037;-66
2022/07/30 08:44:32;;;;;;;3.33;1.70;;;;;;;31.61;37.58;97002.91;5023711;28;20095;-66
2022/07/30 08:47:00;;;;;;;4.53;2.08;;;;;;;30.42;39.97;97012.88;5016097;28;20112;-66
2022/07/30 08:49:26;;;;;;;7.65;2.42;;;;;;;30.85;40.45;97001.06;5014577;28;20049;-65
2022/07/30 08:51:53;;;;;;;5.22;2.00;;;;;;;31.30;38.38;97007.22;5006150;28;20069;-65
2022/07/30 08:54:18;;;;;;;5.72;2.10;;;;;;;31.79;36.27;97007.41;5017799;28;20052;-65
2022/07/30 08:56:44;;;;;;;6.30;2.17;;;;;;;31.81;35.65;97002.78;5005233;28;20042;-66
2022/07/30 08:59:10;;;;;;;4.38;2.33;;;;;;;31.23;37.93;97002.78;5008414;28;20050;-65
2022/07/30 09:01:35;;;;;;;4.65;2.28;;;;;;;30.81;40.27;97003.31;5016851;28;20042;-65
2022/07/30 09:04:01;;;;;;;7.63;2.90;;;;;;;30.98;37.69;96997.88;5018505;28;20037;-65
2022/07/30 09:06:26;;;;;;;2.78;1.50;;;;;;;29.49;40.57;96995.47;5016307;28;20041;-65
2022/07/30 09:08:52;;;;;;;3.58;2.20;;;;;;;30.16;39.17;97000.66;5019486;28;20037;-64
2022/07/30 09:11:18;;;;;;;4.88;1.90;;;;;;;30.75;38.48;97000.41;5018889;28;20052;-66
2022/07/30 09:13:43;;;;;;;5.13;2.00;;;;;;;30.46;38.44;96995.69;5024382;28;20064;-66
2022/07/30 09:16:23;;;;;;;7.38;2.28;;;;;;;30.46;39.12;96995.69;5014156;28;20392;-65
2022/07/30 09:18:49;;;;;;;4.00;2.22;;;;;;;30.82;38.97;96997.16;5017306;28;20472;-63
2022/07/30 09:21:16;;;;;;;5.57;1.85;;;;;;;30.36;38.43;96992.25;5017870;28;20494;-63
2022/07/30 09:24:02;;;;;;;3.65;1.50;;;;;;;30.84;37.02;96982.53;5004662;28;20520;-63
2022/07/30 09:26:31;;;;;;;2.60;1.58;;;;;;;29.96;38.53;96987.25;4996559;28;20049;-65
2022/07/30 09:29:23;;;;;;;4.63;1.63;;;;;;;30.59;36.67;96990.47;5021183;28;20041;-65
2022/07/30 09:31:53;;;;;;;3.05;1.80;;;;;;;29.92;38.89;96981.81;5015789;28;20132;-64
2022/07/30 09:34:38;;;;;;;5.72;2.00;;;;;;;28.54;40.93;96981.13;5014263;28;20821;-64
2022/07/30 09:37:09;;;;;;;5.63;1.75;;;;;;;29.20;40.94;96984.97;5012845;28;20045;-64
2022/07/30 09:39:40;;;;;;;6.25;1.65;;;;;;;30.74;37.97;96990.41;5022293;28;20128;-64
2022/07/30 09:42:24;;;;;;;3.63;1.52;;;;;;;31.51;36.21;96987.38;5019469;28;20430;-64
2022/07/30 09:44:50;;;;;;;3.38;1.80;;;;;;;32.01;34.27;96979.25;5024612;28;20045;-64
2022/07/30 09:47:39;;;;;;;7.85;2.03;;;;;;;29.02;41.00;96969.75;5016773;28;20060;-67
2022/07/30 09:50:09;;;;;;;;;;;;;;;30.70;37.53;96981.34;4997577;28;20041;-65
2022/07/30 09:52:37;;;;;;;6.50;2.17;;;;;;;30.95;35.78;96985.50;5013236;28;19931;-64
2022/07/30 09:55:04;;;;;;;5.32;1.50;;;;;;;31.27;34.41;96987.66;5020372;28;20045;-64
2022/07/30 09:57:30;;;;;;;4.60;1.75;;;;;;;29.86;37.57;96972.50;5013215;28;20053;-63
2022/07/30 09:59:57;;;;;;;3.88;1.88;;;;;;;31.23;34.79;96985.81;5021398;28;20057;-63
2022/07/30 10:02:30;;;;;;;3.80;1.52;;;;;;;30.22;35.50;96982.50;5015272;28;20230;-64
2022/07/30 10:05:13;;;;;;;3.15;1.48;;;;;;;29.57;35.08;96976.91;5020045;28;20041;-65
2022/07/30 10:07:48;;;;;;;3.97;1.80;;;;;;;27.94;38.36;96974.44;5020634;28;20064;-64
2022/07/30 10:10:13;;;;;;;2.45;1.55;;;;;;;27.62;39.42;96971.09;5006043;28;20370;-63
2022/07/30 10:12:39;;;;;;;3.63;1.95;;;;;;;27.09;41.10;96970.25;5021641;28;20048;-64
2022/07/30 10:15:06;;;;;;;7.13;1.80;;;;;;;27.33;40.75;96966.81;5014140;28;20033;-65
2022/07/30 10:17:33;;;;;;;12.88;1.85;;;;;;;26.68;41.29;96964.06;5021385;28;20049;-64
2022/07/30 10:19:58;;;;;;;5.47;1.90;;;;;;;26.54;42.07;96964.66;5004914;28;20041;-64
2022/07/30 10:22:24;;;;;;;4.47;1.88;;;;;;;26.69;41.26;96971.25;4999199;28;20103;-64
2022/07/30 10:24:51;;;;;;;4.78;2.33;;;;;;;26.92;41.68;96968.25;5015419;28;20051;-64
2022/07/30 10:27:17;;;;;;;4.25;1.95;;;;;;;26.54;42.52;96967.47;5004699;28;20045;-64
2022/07/30 10:29:43;;;;;;;7.18;2.00;;;;;;;27.44;41.55;96960.69;5021942;28;20049;-65
2022/07/30 10:32:08;;;;;;;3.63;1.80;;;;;;;28.59;38.52;96958.72;5016492;28;20452;-64
2022/07/30 10:34:34;;;;;;;3.55;1.35;;;;;;;29.39;36.89;96954.50;4998256;28;20033;-65
2022/07/30 10:37:03;;;;;;;3.38;1.55;;;;;;;29.88;35.65;96947.38;5015435;28;20053;-63
2022/07/30 10:39:52;;;;;;;2.30;1.60;;;;;;;29.41;35.45;96958.41;5005967;28;20045;-64
2022/07/30 10:42:27;;;;;;;;;;;;;;;28.75;36.08;96953.88;5016045;28;20040;-64
2022/07/30 10:45:14;;;;;;;5.68;1.70;;;;;;;27.69;37.09;96953.88;5021410;28;20398;-64
2022/07/30 10:47:41;;;;;;;3.40;1.73;;;;;;;27.63;37.72;96947.34;5020171;28;20191;-64
2022/07/30 10:50:06;;;;;;;3.58;1.73;;;;;;;27.79;38.92;96954.63;5014396;28;20617;-65
2022/07/30 10:52:45;;;;;;;3.83;1.85;;;;;;;27.98;38.41;96956.13;5021421;28;20128;-64
2022/07/30 10:55:19;;;;;;;6.53;1.95;;;;;;;28.16;36.71;96946.78;5013815;28;20044;-64
2022/07/30 10:57:59;;;;;;;5.75;1.73;;;;;;;27.88;37.23;96943.31;5020764;28;20123;-64
2022/07/30 11:00:25;;;;;;;4.60;1.52;;;;;;;28.27;37.29;96937.00;5002194;28;20632;-63
2022/07/30 11:03:25;;;;;;;5.47;1.67;;;;;;;28.40;37.34;96946.00;5020818;28;20049;-65
2022/07/30 11:05:51;;;;;;;;;;;;;;;28.44;37.30;96945.81;5020451;28;20506;-65
2022/07/30 11:08:34;;;;;;;3.60;1.63;;;;;;;28.74;35.35;96952.34;5011142;28;19913;-65
2022/07/30 11:11:00;;;;;;;4.53;1.90;;;;;;;28.72;35.31;96952.81;5010784;28;20050;-65
2022/07/30 11:13:56;;;;;;;2.97;1.65;;;;;;;28.24;36.12;96952.06;5014450;28;20167;-65
2022/07/30 11:16:24;;;;;;;3.72;1.60;;;;;;;27.76;37.63;96947.88;5013924;28;20471;-65
2022/07/30 11:19:16;;;;;;;5.35;1.45;;;;;;;26.53;42.83;96946.25;5019046;28;20498;-65
2022/07/30 11:21:46;;;;;;;4.47;1.80;;;;;;;25.83;51.40;96963.56;5012983;28;20049;-65
2022/07/30 11:24:44;;;;;;;6.65;2.08;;;;;;;25.48;49.47;96963.75;5012362;28;20697;-65
2022/07/30 11:27:38;;;;;;;7.43;3.65;;;;;;;26.36;44.93;96962.59;5016580;28;20052;-65
2022/07/30 11:30:25;;;;;;;8.57;2.40;;;;;;;26.78;42.63;96955.66;5016489;28;20037;-65
2022/07/30 11:32:52;;;;;;;4.35;1.80;;;;;;;27.67;39.54;96953.56;5014048;28;20042;-65
2022/07/30 11:35:21;;;;;;;2.25;1.58;;;;;;;27.82;39.95;96950.84;5007226;28;20099;-65